Aviation Digital Data Service (ADDS)

Output produced by METARs form (1145 UTC 18 June 2019)
found at http://www.aviationweather.gov/metar/data/
 
Forecast for: ETHB (BUCKEBURG(GER-AR, DE)
Text: TAF ETHB 181029Z 1811/1820 17007KT 9999 NSW FEW070 SCT300
Forecast period: 1100 to 2000 UTC 18 June 2019
Forecast type: FROM: standard forecast or significant change
Winds: from the S (170 degrees) at 8 MPH (7 knots; 3.6 m/s)
Visibility: 6 or more miles 10+ km)
Ceiling: at least 12,000 feet AGL
Clouds: few clouds at 7000 feet AGL
scattered clouds at 30000 feet AGL
Weather: NSW  (no significant weather)
Text: PROB30 1817/1820 VRB10G20KT 7000 SHRA SCT050CB
Forecast period: 1700 to 2000 UTC 18 June 2019
Forecast type: PROBABLE: 30 percent likelihood of the following during this time
Winds: variable direction winds at 12 MPH (10 knots; 5.1 m/s)
gusting to 23 MPH (20 knots; 10.3 m/s)
Visibility: 4 miles (7 km)
Ceiling: at least 12,000 feet AGL
Clouds: scattered clouds at 5000 feet AGL
Weather: SHRA  (rain showers)